TimeEDT,TemperatureF,Dew PointF,Humidity,Sea Level PressureIn,VisibilityMPH,Wind Direction,Wind SpeedMPH,Gust SpeedMPH,PrecipitationIn,Events,Conditions,WindDirDegrees,DateUTC
12:02 AM,48.2,46.4,93,30.08,1.2,East,4.6,-,N/A,,Partly Cloudy,80,2012-10-19 04:02:00
12:16 AM,53.6,50.0,88,30.06,3.0,East,5.8,-,N/A,,Clear,80,2012-10-19 04:16:00
12:53 AM,57.9,54.0,87,30.06,10.0,ESE,5.8,-,N/A,,Clear,110,2012-10-19 04:53:00
1:53 AM,57.0,52.0,83,30.06,10.0,East,3.5,-,N/A,,Scattered Clouds,100,2012-10-19 05:53:00
2:53 AM,57.9,54.0,87,30.05,10.0,East,4.6,-,N/A,,Mostly Cloudy,90,2012-10-19 06:53:00
3:53 AM,62.1,55.0,78,30.02,10.0,East,6.9,-,N/A,,Overcast,100,2012-10-19 07:53:00
4:53 AM,64.0,55.9,75,30.01,10.0,ESE,11.5,-,N/A,,Overcast,120,2012-10-19 08:53:00
5:53 AM,64.9,57.0,75,30.01,10.0,SE,13.8,-,N/A,,Overcast,130,2012-10-19 09:53:00
6:53 AM,66.0,55.9,70,30.00,10.0,SE,13.8,-,N/A,,Scattered Clouds,130,2012-10-19 10:53:00
7:53 AM,64.9,55.9,73,30.01,10.0,SE,12.7,-,N/A,,Clear,130,2012-10-19 11:53:00
8:53 AM,66.9,55.9,68,30.00,10.0,SE,15.0,25.3,N/A,,Clear,130,2012-10-19 12:53:00
9:53 AM,68.0,54.0,61,30.00,10.0,ESE,19.6,26.5,N/A,,Overcast,120,2012-10-19 13:53:00
10:53 AM,69.1,54.0,58,29.98,10.0,ESE,18.4,31.1,N/A,,Overcast,120,2012-10-19 14:53:00
11:53 AM,70.0,60.1,71,29.95,10.0,ESE,20.7,27.6,N/A,,Overcast,120,2012-10-19 15:53:00
12:32 PM,68.0,60.8,78,29.93,10.0,SE,15.0,26.5,N/A,,Overcast,130,2012-10-19 16:32:00
12:53 PM,69.1,61.0,75,29.92,10.0,SE,16.1,25.3,N/A,,Overcast,130,2012-10-19 16:53:00
1:22 PM,68.0,62.6,83,29.90,10.0,SE,16.1,26.5,N/A,,Overcast,130,2012-10-19 17:22:00
1:36 PM,68.0,62.6,83,29.90,10.0,SE,18.4,26.5,N/A,,Overcast,130,2012-10-19 17:36:00
1:53 PM,70.0,62.1,76,29.89,10.0,SE,12.7,25.3,N/A,,Mostly Cloudy,140,2012-10-19 17:53:00
2:05 PM,69.8,62.6,78,29.88,10.0,SE,17.3,24.2,N/A,,Partly Cloudy,140,2012-10-19 18:05:00
2:36 PM,69.8,62.6,78,29.88,10.0,SE,15.0,26.5,N/A,,Overcast,130,2012-10-19 18:36:00
2:53 PM,70.0,63.0,78,29.87,10.0,SE,15.0,23.0,N/A,,Overcast,130,2012-10-19 18:53:00
3:01 PM,69.8,62.6,78,29.87,10.0,SE,18.4,25.3,N/A,,Overcast,130,2012-10-19 19:01:00
3:11 PM,69.8,62.6,78,29.87,10.0,SE,15.0,26.5,N/A,,Overcast,130,2012-10-19 19:11:00
3:25 PM,68.0,62.6,83,29.87,10.0,SE,13.8,21.9,N/A,,Overcast,130,2012-10-19 19:25:00
3:53 PM,68.0,62.1,81,29.85,10.0,ESE,15.0,23.0,N/A,,Overcast,120,2012-10-19 19:53:00
4:13 PM,68.0,62.6,83,29.84,10.0,ESE,13.8,24.2,N/A,,Overcast,120,2012-10-19 20:13:00
4:29 PM,68.0,62.6,83,29.83,10.0,ESE,15.0,-,0.00,Rain,Light Rain,120,2012-10-19 20:29:00
4:53 PM,69.1,63.0,81,29.82,10.0,SE,16.1,23.0,0.00,,Overcast,130,2012-10-19 20:53:00
5:43 PM,68.0,62.6,83,29.81,10.0,SE,18.4,23.0,0.00,,Overcast,130,2012-10-19 21:43:00
5:53 PM,68.0,62.1,81,29.80,10.0,SE,12.7,25.3,0.00,,Overcast,130,2012-10-19 21:53:00
6:11 PM,69.8,62.6,78,29.79,10.0,SE,18.4,26.5,N/A,,Overcast,140,2012-10-19 22:11:00
6:43 PM,69.8,62.6,78,29.79,10.0,SSE,19.6,27.6,N/A,,Overcast,150,2012-10-19 22:43:00
6:53 PM,70.0,63.0,78,29.79,10.0,SSE,17.3,28.8,N/A,,Overcast,150,2012-10-19 22:53:00
7:20 PM,69.8,62.6,78,29.78,10.0,SSE,15.0,28.8,N/A,,Overcast,160,2012-10-19 23:20:00
7:51 PM,69.8,64.4,83,29.79,10.0,SSE,16.1,25.3,N/A,,Overcast,160,2012-10-19 23:51:00
7:53 PM,69.1,64.0,84,29.79,10.0,SSE,15.0,25.3,N/A,,Overcast,160,2012-10-19 23:53:00
8:10 PM,69.8,64.4,83,29.78,10.0,South,16.1,-,N/A,,Overcast,170,2012-10-20 00:10:00
8:25 PM,69.8,66.2,88,29.78,10.0,South,16.1,21.9,N/A,,Overcast,170,2012-10-20 00:25:00
8:36 PM,69.8,66.2,88,29.78,10.0,South,15.0,-,N/A,,Overcast,180,2012-10-20 00:36:00
8:49 PM,69.8,66.2,88,29.78,10.0,South,13.8,21.9,N/A,,Overcast,180,2012-10-20 00:49:00
8:53 PM,70.0,66.0,87,29.78,10.0,South,15.0,26.5,N/A,,Overcast,180,2012-10-20 00:53:00
9:06 PM,69.8,66.2,88,29.78,10.0,South,17.3,25.3,N/A,,Mostly Cloudy,180,2012-10-20 01:06:00
9:21 PM,71.6,66.2,83,29.79,10.0,South,16.1,24.2,N/A,,Mostly Cloudy,180,2012-10-20 01:21:00
9:24 PM,71.6,66.2,83,29.79,10.0,South,16.1,-,N/A,,Mostly Cloudy,180,2012-10-20 01:24:00
9:35 PM,71.6,66.2,83,29.79,10.0,South,13.8,23.0,N/A,,Overcast,180,2012-10-20 01:35:00
9:53 PM,71.1,66.9,87,29.79,10.0,South,12.7,-,N/A,,Mostly Cloudy,180,2012-10-20 01:53:00
10:07 PM,71.6,68.0,88,29.79,7.0,South,11.5,20.7,0.06,Rain,Light Rain,190,2012-10-20 02:07:00
10:16 PM,71.6,68.0,88,29.80,8.0,SSW,15.0,21.9,0.07,Rain,Rain,200,2012-10-20 02:16:00
10:32 PM,69.8,66.2,88,29.78,10.0,South,12.7,20.7,0.08,,Overcast,170,2012-10-20 02:32:00
10:53 PM,69.1,66.0,90,29.77,7.0,South,13.8,-,0.09,Rain,Light Rain,170,2012-10-20 02:53:00
11:02 PM,69.8,66.2,88,29.78,10.0,South,15.0,21.9,0.00,,Overcast,180,2012-10-20 03:02:00
11:08 PM,69.8,66.2,88,29.78,9.0,South,17.3,21.9,0.00,,Overcast,170,2012-10-20 03:08:00
11:31 PM,71.6,66.2,83,29.78,9.0,South,20.7,28.8,0.02,Rain,Light Rain,190,2012-10-20 03:31:00
11:35 PM,71.6,66.2,83,29.77,7.0,South,20.7,28.8,0.05,Rain-Thunderstorm,Heavy Thunderstorms and Rain,180,2012-10-20 03:35:00
11:53 PM,70.0,66.0,87,29.79,4.0,SSW,18.4,27.6,0.25,Rain-Thunderstorm,Heavy Thunderstorms and Rain,210,2012-10-20 03:53:00
11:58 PM,69.8,64.4,83,29.80,2.5,SW,24.2,32.2,0.20,Rain-Thunderstorm,Heavy Thunderstorms and Rain,220,2012-10-20 03:58:00